sensor_id;sensor_type;location;lat;lon;timestamp;temperature;humidity
1277;DHT22;631;51.024;13.826;2022-09-09T00:01:28;14.50;99.90
1277;DHT22;631;51.024;13.826;2022-09-09T00:04:51;14.40;99.90
1277;DHT22;631;51.024;13.826;2022-09-09T00:06:55;14.50;99.90
1277;DHT22;631;51.024;13.826;2022-09-09T00:09:26;14.40;99.90
1277;DHT22;631;51.024;13.826;2022-09-09T00:12:00;14.50;99.90
1277;DHT22;631;51.024;13.826;2022-09-09T00:19:53;14.40;99.90
1277;DHT22;631;51.024;13.826;2022-09-09T00:22:23;14.30;99.90
1277;DHT22;631;51.024;13.826;2022-09-09T00:24:53;14.30;99.90
1277;DHT22;631;51.024;13.826;2022-09-09T00:32:29;14.10;99.90
1277;DHT22;631;51.024;13.826;2022-09-09T00:35:10;14.00;99.90
1277;DHT22;631;51.024;13.826;2022-09-09T00:37:38;14.00;99.90
1277;DHT22;631;51.024;13.826;2022-09-09T00:40:16;14.00;99.90
1277;DHT22;631;51.024;13.826;2022-09-09T00:42:44;13.90;99.90
1277;DHT22;631;51.024;13.826;2022-09-09T00:45:19;13.90;99.90
1277;DHT22;631;51.024;13.826;2022-09-09T00:47:52;13.90;99.90
1277;DHT22;631;51.024;13.826;2022-09-09T00:56:14;13.80;99.90
1277;DHT22;631;51.024;13.826;2022-09-09T01:01:23;13.80;99.90
1277;DHT22;631;51.024;13.826;2022-09-09T01:03:54;13.80;99.90
1277;DHT22;631;51.024;13.826;2022-09-09T01:06:34;13.80;99.90
1277;DHT22;631;51.024;13.826;2022-09-09T01:11:49;13.70;99.90
1277;DHT22;631;51.024;13.826;2022-09-09T01:17:05;13.60;99.90
1277;DHT22;631;51.024;13.826;2022-09-09T01:22:35;13.60;99.90
1277;DHT22;631;51.024;13.826;2022-09-09T01:27:40;13.50;99.90
1277;DHT22;631;51.024;13.826;2022-09-09T01:30:11;13.50;99.90
1277;DHT22;631;51.024;13.826;2022-09-09T01:37:55;13.50;99.90
1277;DHT22;631;51.024;13.826;2022-09-09T01:40:21;13.50;99.90
1277;DHT22;631;51.024;13.826;2022-09-09T01:42:47;13.50;99.90
1277;DHT22;631;51.024;13.826;2022-09-09T01:45:13;13.40;99.90
1277;DHT22;631;51.024;13.826;2022-09-09T01:47:39;13.40;99.90
1277;DHT22;631;51.024;13.826;2022-09-09T01:50:05;13.40;99.90
1277;DHT22;631;51.024;13.826;2022-09-09T01:52:35;13.40;99.90
1277;DHT22;631;51.024;13.826;2022-09-09T01:55:01;13.50;99.90
1277;DHT22;631;51.024;13.826;2022-09-09T02:00:57;13.30;99.90
1277;DHT22;631;51.024;13.826;2022-09-09T02:03:28;13.30;99.90
1277;DHT22;631;51.024;13.826;2022-09-09T02:08:29;13.20;99.90
1277;DHT22;631;51.024;13.826;2022-09-09T02:11:10;13.30;99.90
1277;DHT22;631;51.024;13.826;2022-09-09T02:13:38;13.30;99.90
1277;DHT22;631;51.024;13.826;2022-09-09T02:16:18;13.20;99.90
1277;DHT22;631;51.024;13.826;2022-09-09T02:18:48;13.20;99.90
1277;DHT22;631;51.024;13.826;2022-09-09T02:21:17;13.20;99.90
1277;DHT22;631;51.024;13.826;2022-09-09T02:23:43;13.10;99.90
1277;DHT22;631;51.024;13.826;2022-09-09T02:26:12;13.10;99.90
1277;DHT22;631;51.024;13.826;2022-09-09T02:28:46;13.00;99.90
1277;DHT22;631;51.024;13.826;2022-09-09T02:31:13;13.00;99.90
1277;DHT22;631;51.024;13.826;2022-09-09T02:33:43;12.90;99.90
1277;DHT22;631;51.024;13.826;2022-09-09T02:36:12;12.90;99.90
1277;DHT22;631;51.024;13.826;2022-09-09T02:38:45;12.90;99.90
1277;DHT22;631;51.024;13.826;2022-09-09T02:41:23;12.90;99.90
1277;DHT22;631;51.024;13.826;2022-09-09T02:43:50;12.80;99.90
1277;DHT22;631;51.024;13.826;2022-09-09T02:52:26;12.80;99.90
1277;DHT22;631;51.024;13.826;2022-09-09T02:54:34;12.70;99.90
1277;DHT22;631;51.024;13.826;2022-09-09T02:57:10;12.70;99.90
1277;DHT22;631;51.024;13.826;2022-09-09T02:59:37;12.70;99.90
1277;DHT22;631;51.024;13.826;2022-09-09T03:02:03;12.80;99.90
1277;DHT22;631;51.024;13.826;2022-09-09T03:04:29;12.70;99.90
1277;DHT22;631;51.024;13.826;2022-09-09T03:06:57;12.70;99.90
1277;DHT22;631;51.024;13.826;2022-09-09T03:09:23;12.60;99.90
1277;DHT22;631;51.024;13.826;2022-09-09T03:11:49;12.70;99.90
1277;DHT22;631;51.024;13.826;2022-09-09T03:14:15;12.70;99.90
1277;DHT22;631;51.024;13.826;2022-09-09T03:16:40;12.70;99.90
1277;DHT22;631;51.024;13.826;2022-09-09T03:19:08;12.70;99.90
1277;DHT22;631;51.024;13.826;2022-09-09T03:21:34;12.70;99.90
1277;DHT22;631;51.024;13.826;2022-09-09T03:24:01;12.70;99.90
1277;DHT22;631;51.024;13.826;2022-09-09T03:26:29;12.70;99.90
1277;DHT22;631;51.024;13.826;2022-09-09T03:28:55;12.70;99.90
1277;DHT22;631;51.024;13.826;2022-09-09T03:31:21;12.70;99.90
1277;DHT22;631;51.024;13.826;2022-09-09T03:33:47;12.70;99.90
1277;DHT22;631;51.024;13.826;2022-09-09T03:36:13;12.70;99.90
1277;DHT22;631;51.024;13.826;2022-09-09T03:38:39;12.70;99.90
1277;DHT22;631;51.024;13.826;2022-09-09T03:41:05;12.60;99.90
1277;DHT22;631;51.024;13.826;2022-09-09T03:43:31;12.70;99.90
1277;DHT22;631;51.024;13.826;2022-09-09T03:45:56;12.70;99.90
1277;DHT22;631;51.024;13.826;2022-09-09T03:48:23;12.60;99.90
1277;DHT22;631;51.024;13.826;2022-09-09T03:50:51;12.60;99.90
1277;DHT22;631;51.024;13.826;2022-09-09T03:53:19;12.60;99.90
1277;DHT22;631;51.024;13.826;2022-09-09T03:55:46;12.70;99.90
1277;DHT22;631;51.024;13.826;2022-09-09T03:58:13;12.70;99.90
1277;DHT22;631;51.024;13.826;2022-09-09T04:00:39;12.70;99.90
1277;DHT22;631;51.024;13.826;2022-09-09T04:03:09;12.80;99.90
1277;DHT22;631;51.024;13.826;2022-09-09T04:05:34;12.80;99.90
1277;DHT22;631;51.024;13.826;2022-09-09T04:08:00;12.70;99.90
1277;DHT22;631;51.024;13.826;2022-09-09T04:10:26;12.70;99.90
1277;DHT22;631;51.024;13.826;2022-09-09T04:12:52;12.70;99.90
1277;DHT22;631;51.024;13.826;2022-09-09T04:15:18;12.80;99.90
1277;DHT22;631;51.024;13.826;2022-09-09T04:17:44;12.80;99.90
1277;DHT22;631;51.024;13.826;2022-09-09T04:20:09;12.80;99.90
1277;DHT22;631;51.024;13.826;2022-09-09T04:22:37;12.80;99.90
1277;DHT22;631;51.024;13.826;2022-09-09T04:25:05;12.80;99.90
1277;DHT22;631;51.024;13.826;2022-09-09T04:27:31;12.80;99.90
1277;DHT22;631;51.024;13.826;2022-09-09T04:29:57;12.90;99.90
1277;DHT22;631;51.024;13.826;2022-09-09T04:32:22;12.90;99.90
1277;DHT22;631;51.024;13.826;2022-09-09T04:34:48;12.90;99.90
1277;DHT22;631;51.024;13.826;2022-09-09T04:37:14;12.90;99.90
1277;DHT22;631;51.024;13.826;2022-09-09T04:39:39;12.90;99.90
1277;DHT22;631;51.024;13.826;2022-09-09T04:42:05;13.00;99.90
1277;DHT22;631;51.024;13.826;2022-09-09T04:44:31;13.10;99.90
1277;DHT22;631;51.024;13.826;2022-09-09T04:46:56;13.10;99.90
1277;DHT22;631;51.024;13.826;2022-09-09T04:49:23;13.10;99.90
1277;DHT22;631;51.024;13.826;2022-09-09T04:51:49;13.10;99.90
1277;DHT22;631;51.024;13.826;2022-09-09T04:54:14;13.10;99.90
1277;DHT22;631;51.024;13.826;2022-09-09T04:56:40;13.10;99.90
1277;DHT22;631;51.024;13.826;2022-09-09T04:59:07;13.10;99.90
1277;DHT22;631;51.024;13.826;2022-09-09T05:01:33;13.10;99.90
1277;DHT22;631;51.024;13.826;2022-09-09T05:03:58;13.20;99.90
1277;DHT22;631;51.024;13.826;2022-09-09T05:06:24;13.20;99.90
1277;DHT22;631;51.024;13.826;2022-09-09T05:08:50;13.30;99.90
1277;DHT22;631;51.024;13.826;2022-09-09T05:11:27;13.30;99.90
1277;DHT22;631;51.024;13.826;2022-09-09T05:13:54;13.30;99.90
1277;DHT22;631;51.024;13.826;2022-09-09T05:16:20;13.40;99.90
1277;DHT22;631;51.024;13.826;2022-09-09T05:18:46;13.50;99.90
1277;DHT22;631;51.024;13.826;2022-09-09T05:21:14;13.50;99.90
1277;DHT22;631;51.024;13.826;2022-09-09T05:23:40;13.60;99.90
1277;DHT22;631;51.024;13.826;2022-09-09T05:26:08;13.70;99.90
1277;DHT22;631;51.024;13.826;2022-09-09T05:28:34;13.80;99.90
1277;DHT22;631;51.024;13.826;2022-09-09T05:31:03;13.90;99.90
1277;DHT22;631;51.024;13.826;2022-09-09T05:33:30;14.00;99.90
1277;DHT22;631;51.024;13.826;2022-09-09T05:36:01;14.10;99.90
1277;DHT22;631;51.024;13.826;2022-09-09T05:38:28;14.20;99.90
1277;DHT22;631;51.024;13.826;2022-09-09T05:40:54;14.30;99.90
1277;DHT22;631;51.024;13.826;2022-09-09T05:43:22;14.30;99.90
1277;DHT22;631;51.024;13.826;2022-09-09T05:45:48;14.40;99.90
1277;DHT22;631;51.024;13.826;2022-09-09T05:48:23;14.50;99.90
1277;DHT22;631;51.024;13.826;2022-09-09T05:50:53;14.60;99.90
1277;DHT22;631;51.024;13.826;2022-09-09T05:53:19;14.70;99.40
1277;DHT22;631;51.024;13.826;2022-09-09T05:55:45;14.70;96.10
1277;DHT22;631;51.024;13.826;2022-09-09T05:58:11;14.80;91.10
1277;DHT22;631;51.024;13.826;2022-09-09T06:00:36;15.00;82.30
1277;DHT22;631;51.024;13.826;2022-09-09T06:03:03;15.10;69.40
1277;DHT22;631;51.024;13.826;2022-09-09T06:05:29;15.20;64.90
1277;DHT22;631;51.024;13.826;2022-09-09T06:07:55;15.20;61.50
1277;DHT22;631;51.024;13.826;2022-09-09T06:10:21;15.40;49.60
1277;DHT22;631;51.024;13.826;2022-09-09T06:12:47;15.50;42.20
1277;DHT22;631;51.024;13.826;2022-09-09T06:15:12;15.50;37.90
1277;DHT22;631;51.024;13.826;2022-09-09T06:17:38;15.60;36.10
1277;DHT22;631;51.024;13.826;2022-09-09T06:20:05;15.70;38.90
1277;DHT22;631;51.024;13.826;2022-09-09T06:22:31;15.80;32.20
1277;DHT22;631;51.024;13.826;2022-09-09T06:24:56;15.80;27.10
1277;DHT22;631;51.024;13.826;2022-09-09T06:27:22;16.00;25.60
1277;DHT22;631;51.024;13.826;2022-09-09T06:29:47;16.00;21.10
1277;DHT22;631;51.024;13.826;2022-09-09T06:32:13;16.10;22.00
1277;DHT22;631;51.024;13.826;2022-09-09T06:34:39;16.20;11.00
1277;DHT22;631;51.024;13.826;2022-09-09T06:37:05;16.20;10.30
1277;DHT22;631;51.024;13.826;2022-09-09T06:39:32;16.40;4.20
1277;DHT22;631;51.024;13.826;2022-09-09T06:41:57;16.40;1.00
1277;DHT22;631;51.024;13.826;2022-09-09T06:44:24;16.50;1.00
1277;DHT22;631;51.024;13.826;2022-09-09T06:46:52;16.60;1.00
1277;DHT22;631;51.024;13.826;2022-09-09T06:49:17;16.70;1.00
1277;DHT22;631;51.024;13.826;2022-09-09T06:51:43;16.70;1.00
1277;DHT22;631;51.024;13.826;2022-09-09T06:54:10;16.80;1.00
1277;DHT22;631;51.024;13.826;2022-09-09T06:56:37;16.90;1.00
1277;DHT22;631;51.024;13.826;2022-09-09T06:59:07;16.90;1.00
1277;DHT22;631;51.024;13.826;2022-09-09T07:01:42;17.00;1.00
1277;DHT22;631;51.024;13.826;2022-09-09T07:04:09;17.20;1.00
1277;DHT22;631;51.024;13.826;2022-09-09T07:06:44;17.30;1.00
1277;DHT22;631;51.024;13.826;2022-09-09T07:09:12;17.30;1.00
1277;DHT22;631;51.024;13.826;2022-09-09T07:11:47;17.60;1.00
1277;DHT22;631;51.024;13.826;2022-09-09T07:14:13;17.70;1.00
1277;DHT22;631;51.024;13.826;2022-09-09T07:16:43;17.90;1.00
1277;DHT22;631;51.024;13.826;2022-09-09T07:19:10;17.90;1.00
1277;DHT22;631;51.024;13.826;2022-09-09T07:21:35;18.10;1.00
1277;DHT22;631;51.024;13.826;2022-09-09T07:24:02;18.20;1.00
1277;DHT22;631;51.024;13.826;2022-09-09T07:26:29;18.20;1.00
1277;DHT22;631;51.024;13.826;2022-09-09T07:28:55;18.30;1.00
1277;DHT22;631;51.024;13.826;2022-09-09T07:31:33;18.30;1.00
1277;DHT22;631;51.024;13.826;2022-09-09T07:34:00;18.40;1.00
1277;DHT22;631;51.024;13.826;2022-09-09T07:36:44;18.50;1.00
1277;DHT22;631;51.024;13.826;2022-09-09T07:39:12;18.50;1.00
1277;DHT22;631;51.024;13.826;2022-09-09T07:41:45;18.40;1.00
1277;DHT22;631;51.024;13.826;2022-09-09T07:44:14;18.60;1.00
1277;DHT22;631;51.024;13.826;2022-09-09T07:46:41;18.60;1.00
1277;DHT22;631;51.024;13.826;2022-09-09T07:49:07;18.70;1.00
1277;DHT22;631;51.024;13.826;2022-09-09T07:51:42;18.90;1.00
1277;DHT22;631;51.024;13.826;2022-09-09T07:54:12;19.10;99.90
1277;DHT22;631;51.024;13.826;2022-09-09T07:56:39;19.30;99.90
1277;DHT22;631;51.024;13.826;2022-09-09T07:59:06;19.50;99.90
1277;DHT22;631;51.024;13.826;2022-09-09T08:01:43;19.70;99.90
1277;DHT22;631;51.024;13.826;2022-09-09T08:04:11;20.00;99.90
1277;DHT22;631;51.024;13.826;2022-09-09T08:06:44;20.50;99.90
1277;DHT22;631;51.024;13.826;2022-09-09T08:09:10;20.90;1.00
1277;DHT22;631;51.024;13.826;2022-09-09T08:11:36;21.20;1.00
1277;DHT22;631;51.024;13.826;2022-09-09T08:14:03;21.60;75.50
1277;DHT22;631;51.024;13.826;2022-09-09T08:16:32;21.60;99.90
1277;DHT22;631;51.024;13.826;2022-09-09T08:18:58;21.90;1.00
1277;DHT22;631;51.024;13.826;2022-09-09T08:21:27;22.00;99.90
1277;DHT22;631;51.024;13.826;2022-09-09T08:23:54;22.00;99.90
1277;DHT22;631;51.024;13.826;2022-09-09T08:26:21;21.90;99.00
1277;DHT22;631;51.024;13.826;2022-09-09T08:28:52;21.90;1.00
1277;DHT22;631;51.024;13.826;2022-09-09T08:31:21;22.00;1.00
1277;DHT22;631;51.024;13.826;2022-09-09T08:33:47;21.90;99.90
1277;DHT22;631;51.024;13.826;2022-09-09T08:36:19;21.80;55.50
1277;DHT22;631;51.024;13.826;2022-09-09T08:38:54;21.80;99.90
1277;DHT22;631;51.024;13.826;2022-09-09T08:41:40;21.80;99.90
1277;DHT22;631;51.024;13.826;2022-09-09T08:47:07;21.80;1.00
1277;DHT22;631;51.024;13.826;2022-09-09T08:52:02;22.10;99.90
1277;DHT22;631;51.024;13.826;2022-09-09T08:54:34;22.10;44.00
1277;DHT22;631;51.024;13.826;2022-09-09T08:57:01;22.00;99.90
1277;DHT22;631;51.024;13.826;2022-09-09T08:59:27;22.10;99.90
1277;DHT22;631;51.024;13.826;2022-09-09T09:02:11;22.30;1.00
1277;DHT22;631;51.024;13.826;2022-09-09T09:08:08;22.60;99.90
1277;DHT22;631;51.024;13.826;2022-09-09T09:10:49;22.60;1.00
1277;DHT22;631;51.024;13.826;2022-09-09T09:13:34;22.60;1.00
1277;DHT22;631;51.024;13.826;2022-09-09T09:18:47;22.70;1.00
1277;DHT22;631;51.024;13.826;2022-09-09T09:21:24;22.60;1.00
1277;DHT22;631;51.024;13.826;2022-09-09T09:23:59;22.70;11.30
1277;DHT22;631;51.024;13.826;2022-09-09T09:26:35;22.90;1.00
1277;DHT22;631;51.024;13.826;2022-09-09T09:29:09;23.00;32.10
1277;DHT22;631;51.024;13.826;2022-09-09T09:31:35;22.60;1.00
1277;DHT22;631;51.024;13.826;2022-09-09T09:34:00;22.20;99.90
1277;DHT22;631;51.024;13.826;2022-09-09T09:36:57;21.70;99.90
1277;DHT22;631;51.024;13.826;2022-09-09T09:41:53;20.30;1.00
1277;DHT22;631;51.024;13.826;2022-09-09T09:47:04;19.30;1.00
1277;DHT22;631;51.024;13.826;2022-09-09T09:49:30;19.10;30.10
1277;DHT22;631;51.024;13.826;2022-09-09T09:52:00;18.80;80.10
1277;DHT22;631;51.024;13.826;2022-09-09T09:54:33;18.70;99.90
1277;DHT22;631;51.024;13.826;2022-09-09T09:57:13;18.90;99.90
1277;DHT22;631;51.024;13.826;2022-09-09T09:59:40;19.20;99.90
1277;DHT22;631;51.024;13.826;2022-09-09T10:04:43;20.40;99.90
1277;DHT22;631;51.024;13.826;2022-09-09T10:07:28;21.10;98.40
1277;DHT22;631;51.024;13.826;2022-09-09T10:09:56;22.00;64.00
1277;DHT22;631;51.024;13.826;2022-09-09T10:12:37;23.30;1.00
1277;DHT22;631;51.024;13.826;2022-09-09T10:16:00;24.50;1.00
1277;DHT22;631;51.024;13.826;2022-09-09T10:21:09;26.30;99.90
1277;DHT22;631;51.024;13.826;2022-09-09T10:32:06;29.70;1.00
1277;DHT22;631;51.024;13.826;2022-09-09T10:34:55;30.30;1.00
1277;DHT22;631;51.024;13.826;2022-09-09T10:39:50;31.00;1.00
1277;DHT22;631;51.024;13.826;2022-09-09T10:42:26;31.30;1.00
1277;DHT22;631;51.024;13.826;2022-09-09T10:55:26;32.90;99.90
1277;DHT22;631;51.024;13.826;2022-09-09T10:57:56;33.20;99.90
1277;DHT22;631;51.024;13.826;2022-09-09T11:00:25;32.90;99.90
1277;DHT22;631;51.024;13.826;2022-09-09T11:03:03;33.00;99.90
1277;DHT22;631;51.024;13.826;2022-09-09T11:05:42;32.40;99.90
1277;DHT22;631;51.024;13.826;2022-09-09T11:08:11;32.00;99.90
1277;DHT22;631;51.024;13.826;2022-09-09T11:13:13;31.00;99.90
1277;DHT22;631;51.024;13.826;2022-09-09T11:15:48;30.70;99.90
1277;DHT22;631;51.024;13.826;2022-09-09T11:18:19;30.50;99.90
1277;DHT22;631;51.024;13.826;2022-09-09T11:20:49;29.90;99.90
1277;DHT22;631;51.024;13.826;2022-09-09T11:23:44;29.20;99.90
1277;DHT22;631;51.024;13.826;2022-09-09T11:26:14;28.60;99.90
1277;DHT22;631;51.024;13.826;2022-09-09T11:29:16;27.90;99.90
1277;DHT22;631;51.024;13.826;2022-09-09T11:32:07;27.10;91.90
1277;DHT22;631;51.024;13.826;2022-09-09T11:40:54;25.30;1.00
1277;DHT22;631;51.024;13.826;2022-09-09T11:43:25;26.20;99.90
1277;DHT22;631;51.024;13.826;2022-09-09T11:45:58;27.30;83.80
1277;DHT22;631;51.024;13.826;2022-09-09T11:51:06;29.40;1.00
1277;DHT22;631;51.024;13.826;2022-09-09T11:53:34;30.70;1.00
1277;DHT22;631;51.024;13.826;2022-09-09T11:56:09;31.50;99.90
1277;DHT22;631;51.024;13.826;2022-09-09T11:58:40;32.30;99.90
1277;DHT22;631;51.024;13.826;2022-09-09T12:01:29;32.40;99.90
1277;DHT22;631;51.024;13.826;2022-09-09T12:06:50;33.80;99.90
1277;DHT22;631;51.024;13.826;2022-09-09T12:09:22;34.10;99.90
1277;DHT22;631;51.024;13.826;2022-09-09T12:11:51;34.30;99.90
1277;DHT22;631;51.024;13.826;2022-09-09T12:14:42;33.70;99.90
1277;DHT22;631;51.024;13.826;2022-09-09T12:17:24;34.00;99.90
1277;DHT22;631;51.024;13.826;2022-09-09T12:25:21;34.30;99.90
1277;DHT22;631;51.024;13.826;2022-09-09T12:28:14;34.20;99.90
1277;DHT22;631;51.024;13.826;2022-09-09T12:33:16;33.90;99.90
1277;DHT22;631;51.024;13.826;2022-09-09T12:35:43;33.70;99.90
1277;DHT22;631;51.024;13.826;2022-09-09T12:38:15;34.00;99.90
1277;DHT22;631;51.024;13.826;2022-09-09T12:40:54;34.40;99.90
1277;DHT22;631;51.024;13.826;2022-09-09T12:43:22;34.90;99.90
1277;DHT22;631;51.024;13.826;2022-09-09T12:45:50;35.10;99.90
1277;DHT22;631;51.024;13.826;2022-09-09T12:48:22;34.90;99.90
1277;DHT22;631;51.024;13.826;2022-09-09T12:50:51;34.70;99.90
1277;DHT22;631;51.024;13.826;2022-09-09T12:53:22;34.60;99.90
1277;DHT22;631;51.024;13.826;2022-09-09T12:58:23;33.60;99.90
1277;DHT22;631;51.024;13.826;2022-09-09T13:00:51;33.10;99.90
1277;DHT22;631;51.024;13.826;2022-09-09T13:03:19;32.00;99.90
1277;DHT22;631;51.024;13.826;2022-09-09T13:05:46;30.80;99.90
1277;DHT22;631;51.024;13.826;2022-09-09T13:08:13;30.20;99.90
1277;DHT22;631;51.024;13.826;2022-09-09T13:10:57;29.80;99.90
1277;DHT22;631;51.024;13.826;2022-09-09T13:13:31;30.00;99.90
1277;DHT22;631;51.024;13.826;2022-09-09T13:16:00;30.50;99.90
1277;DHT22;631;51.024;13.826;2022-09-09T13:18:29;30.90;99.90
1277;DHT22;631;51.024;13.826;2022-09-09T13:20:56;31.60;99.90
1277;DHT22;631;51.024;13.826;2022-09-09T13:23:32;32.20;99.90
1277;DHT22;631;51.024;13.826;2022-09-09T13:26:00;32.20;99.90
1277;DHT22;631;51.024;13.826;2022-09-09T13:28:28;32.70;99.90
1277;DHT22;631;51.024;13.826;2022-09-09T13:30:59;32.80;99.90
1277;DHT22;631;51.024;13.826;2022-09-09T13:33:33;32.80;99.90
1277;DHT22;631;51.024;13.826;2022-09-09T13:36:04;32.50;99.90
1277;DHT22;631;51.024;13.826;2022-09-09T13:41:53;31.80;99.90
1277;DHT22;631;51.024;13.826;2022-09-09T13:44:24;32.40;99.90
1277;DHT22;631;51.024;13.826;2022-09-09T13:47:18;33.20;99.90
1277;DHT22;631;51.024;13.826;2022-09-09T13:49:47;34.30;99.90
1277;DHT22;631;51.024;13.826;2022-09-09T13:52:17;34.90;99.90
1277;DHT22;631;51.024;13.826;2022-09-09T13:54:48;34.90;99.90
1277;DHT22;631;51.024;13.826;2022-09-09T13:57:20;35.30;99.90
1277;DHT22;631;51.024;13.826;2022-09-09T13:59:48;35.30;99.90
1277;DHT22;631;51.024;13.826;2022-09-09T14:02:15;35.20;99.90
1277;DHT22;631;51.024;13.826;2022-09-09T14:04:42;35.30;99.90
1277;DHT22;631;51.024;13.826;2022-09-09T14:07:18;34.60;99.90
1277;DHT22;631;51.024;13.826;2022-09-09T14:09:44;33.50;99.90
1277;DHT22;631;51.024;13.826;2022-09-09T14:12:12;32.40;99.90
1277;DHT22;631;51.024;13.826;2022-09-09T14:14:39;31.30;99.90
1277;DHT22;631;51.024;13.826;2022-09-09T14:17:05;30.40;99.90
1277;DHT22;631;51.024;13.826;2022-09-09T14:19:30;30.00;99.90
1277;DHT22;631;51.024;13.826;2022-09-09T14:21:57;29.50;99.90
1277;DHT22;631;51.024;13.826;2022-09-09T14:24:23;29.00;99.90
1277;DHT22;631;51.024;13.826;2022-09-09T14:26:49;28.60;99.90
1277;DHT22;631;51.024;13.826;2022-09-09T14:29:14;28.30;99.90
1277;DHT22;631;51.024;13.826;2022-09-09T14:31:40;28.00;99.90
1277;DHT22;631;51.024;13.826;2022-09-09T14:34:05;27.80;99.90
1277;DHT22;631;51.024;13.826;2022-09-09T14:36:31;27.50;99.90
1277;DHT22;631;51.024;13.826;2022-09-09T14:38:57;27.40;99.90
1277;DHT22;631;51.024;13.826;2022-09-09T14:41:23;27.40;99.90
1277;DHT22;631;51.024;13.826;2022-09-09T14:43:50;27.30;99.90
1277;DHT22;631;51.024;13.826;2022-09-09T14:46:18;27.50;99.90
1277;DHT22;631;51.024;13.826;2022-09-09T14:48:44;27.70;99.90
1277;DHT22;631;51.024;13.826;2022-09-09T14:51:22;27.70;99.90
1277;DHT22;631;51.024;13.826;2022-09-09T14:53:51;27.50;99.90
1277;DHT22;631;51.024;13.826;2022-09-09T14:56:20;27.20;99.90
1277;DHT22;631;51.024;13.826;2022-09-09T14:58:47;27.00;99.90
1277;DHT22;631;51.024;13.826;2022-09-09T15:01:18;26.80;99.90
1277;DHT22;631;51.024;13.826;2022-09-09T15:03:50;26.60;99.90
1277;DHT22;631;51.024;13.826;2022-09-09T15:06:16;26.40;99.90
1277;DHT22;631;51.024;13.826;2022-09-09T15:08:44;26.20;1.00
1277;DHT22;631;51.024;13.826;2022-09-09T15:11:11;25.90;1.00
1277;DHT22;631;51.024;13.826;2022-09-09T15:13:39;25.70;1.00
1277;DHT22;631;51.024;13.826;2022-09-09T15:16:06;25.50;1.00
1277;DHT22;631;51.024;13.826;2022-09-09T15:18:33;25.10;1.00
1277;DHT22;631;51.024;13.826;2022-09-09T15:21:05;24.90;99.90
1277;DHT22;631;51.024;13.826;2022-09-09T15:23:32;24.60;99.90
1277;DHT22;631;51.024;13.826;2022-09-09T15:25:58;24.40;1.00
1277;DHT22;631;51.024;13.826;2022-09-09T15:28:24;24.20;99.90
1277;DHT22;631;51.024;13.826;2022-09-09T15:30:50;23.50;99.90
1277;DHT22;631;51.024;13.826;2022-09-09T15:33:18;23.30;99.90
1277;DHT22;631;51.024;13.826;2022-09-09T15:35:43;23.10;99.90
1277;DHT22;631;51.024;13.826;2022-09-09T15:38:09;23.00;1.00
1277;DHT22;631;51.024;13.826;2022-09-09T15:40:35;22.80;1.00
1277;DHT22;631;51.024;13.826;2022-09-09T15:43:00;22.70;1.00
1277;DHT22;631;51.024;13.826;2022-09-09T15:45:27;22.50;99.90
1277;DHT22;631;51.024;13.826;2022-09-09T15:47:53;22.40;99.90
1277;DHT22;631;51.024;13.826;2022-09-09T15:50:18;22.30;1.00
1277;DHT22;631;51.024;13.826;2022-09-09T15:52:44;22.20;1.00
1277;DHT22;631;51.024;13.826;2022-09-09T15:55:10;22.10;1.00
1277;DHT22;631;51.024;13.826;2022-09-09T15:57:36;22.00;88.70
1277;DHT22;631;51.024;13.826;2022-09-09T16:00:03;21.90;99.90
1277;DHT22;631;51.024;13.826;2022-09-09T16:02:30;22.10;1.00
1277;DHT22;631;51.024;13.826;2022-09-09T16:04:56;22.10;99.90
1277;DHT22;631;51.024;13.826;2022-09-09T16:07:22;22.10;99.90
1277;DHT22;631;51.024;13.826;2022-09-09T16:09:48;22.10;31.30
1277;DHT22;631;51.024;13.826;2022-09-09T16:12:16;22.00;1.00
1277;DHT22;631;51.024;13.826;2022-09-09T16:14:42;22.00;99.90
1277;DHT22;631;51.024;13.826;2022-09-09T16:17:08;22.00;1.00
1277;DHT22;631;51.024;13.826;2022-09-09T16:19:34;22.00;99.90
1277;DHT22;631;51.024;13.826;2022-09-09T16:22:00;21.80;99.90
1277;DHT22;631;51.024;13.826;2022-09-09T16:24:26;21.90;34.30
1277;DHT22;631;51.024;13.826;2022-09-09T16:26:53;21.60;1.00
1277;DHT22;631;51.024;13.826;2022-09-09T16:29:20;21.50;99.90
1277;DHT22;631;51.024;13.826;2022-09-09T16:31:48;21.20;1.00
1277;DHT22;631;51.024;13.826;2022-09-09T16:34:14;20.90;99.90
1277;DHT22;631;51.024;13.826;2022-09-09T16:36:41;20.80;99.90
1277;DHT22;631;51.024;13.826;2022-09-09T16:39:09;20.70;1.00
1277;DHT22;631;51.024;13.826;2022-09-09T16:41:36;20.70;1.00
1277;DHT22;631;51.024;13.826;2022-09-09T16:44:05;20.70;99.90
1277;DHT22;631;51.024;13.826;2022-09-09T16:46:36;20.70;99.90
1277;DHT22;631;51.024;13.826;2022-09-09T16:49:05;20.60;99.90
1277;DHT22;631;51.024;13.826;2022-09-09T16:51:33;20.50;99.90
1277;DHT22;631;51.024;13.826;2022-09-09T16:54:00;20.40;99.90
1277;DHT22;631;51.024;13.826;2022-09-09T16:56:30;20.40;99.90
1277;DHT22;631;51.024;13.826;2022-09-09T16:59:01;20.30;99.90
1277;DHT22;631;51.024;13.826;2022-09-09T17:01:30;20.30;99.90
1277;DHT22;631;51.024;13.826;2022-09-09T17:03:58;20.30;99.90
1277;DHT22;631;51.024;13.826;2022-09-09T17:06:24;20.40;99.90
1277;DHT22;631;51.024;13.826;2022-09-09T17:08:57;20.50;99.90
1277;DHT22;631;51.024;13.826;2022-09-09T17:11:23;20.60;99.90
1277;DHT22;631;51.024;13.826;2022-09-09T17:13:50;20.60;53.70
1277;DHT22;631;51.024;13.826;2022-09-09T17:16:17;20.70;57.70
1277;DHT22;631;51.024;13.826;2022-09-09T17:18:43;20.80;1.00
1277;DHT22;631;51.024;13.826;2022-09-09T17:21:13;20.60;1.00
1277;DHT22;631;51.024;13.826;2022-09-09T17:23:39;20.60;1.00
1277;DHT22;631;51.024;13.826;2022-09-09T17:26:11;20.60;23.70
1277;DHT22;631;51.024;13.826;2022-09-09T17:28:38;20.50;1.00
1277;DHT22;631;51.024;13.826;2022-09-09T17:31:05;20.40;99.90
1277;DHT22;631;51.024;13.826;2022-09-09T17:33:33;20.30;99.90
1277;DHT22;631;51.024;13.826;2022-09-09T17:36:01;20.20;99.90
1277;DHT22;631;51.024;13.826;2022-09-09T17:38:27;20.10;1.00
1277;DHT22;631;51.024;13.826;2022-09-09T17:43:34;19.90;1.00
1277;DHT22;631;51.024;13.826;2022-09-09T17:46:11;19.80;1.00
1277;DHT22;631;51.024;13.826;2022-09-09T17:48:38;19.70;1.00
1277;DHT22;631;51.024;13.826;2022-09-09T17:51:11;19.60;1.00
1277;DHT22;631;51.024;13.826;2022-09-09T17:53:38;19.50;1.00
1277;DHT22;631;51.024;13.826;2022-09-09T17:56:06;19.40;1.00
1277;DHT22;631;51.024;13.826;2022-09-09T17:58:32;19.20;1.00
1277;DHT22;631;51.024;13.826;2022-09-09T18:01:29;19.10;1.00
1277;DHT22;631;51.024;13.826;2022-09-09T18:03:56;18.90;1.00
1277;DHT22;631;51.024;13.826;2022-09-09T18:06:25;18.90;1.00
1277;DHT22;631;51.024;13.826;2022-09-09T18:08:57;18.80;1.00
1277;DHT22;631;51.024;13.826;2022-09-09T18:11:26;18.70;1.00
1277;DHT22;631;51.024;13.826;2022-09-09T18:13:54;18.60;1.00
1277;DHT22;631;51.024;13.826;2022-09-09T18:16:20;18.40;1.00
1277;DHT22;631;51.024;13.826;2022-09-09T18:18:47;18.40;1.00
1277;DHT22;631;51.024;13.826;2022-09-09T18:21:15;18.40;1.00